Time;durP1;ratioP1;P1;durP2;ratioP2;P2;SDS_P1;SDS_P2;PMS_P1;PMS_P2;Temp;Humidity;BMP_temperature;BMP_pressure;BME280_temperature;BME280_humidity;BME280_pressure;Samples;Min_cycle;Max_cycle;Signal;HPM_P1;HPM_P2
2022/07/07 00:05:08;;;;;;;0.10;0.10;;;;;;;;;;6369853;22;20072;-94
2022/07/07 00:07:54;;;;;;;0.10;0.10;;;;;;;;;;6337439;22;20042;-96
2022/07/07 00:13:24;;;;;;;0.10;0.10;;;;;;;;;;6264061;22;20142;-95
2022/07/07 00:19:24;;;;;;;0.10;0.10;;;;;;;;;;6216677;23;20023;-96
2022/07/07 00:22:27;;;;;;;;;;;;;;;;;;;;;
2022/07/07 00:28:36;;;;;;;0.43;0.30;;;;;;;;;;6184016;23;20097;-96
2022/07/07 00:31:30;;;;;;;0.10;0.10;;;;;;;;;;6124856;23;20013;-96
2022/07/07 01:08:08;;;;;;;;;;;;;;;;;;;;;
2022/07/07 03:00:43;;;;;;;0.10;0.10;;;;;;;;;;6216442;22;20480;-96
2022/07/07 03:58:49;;;;;;;0.10;0.10;;;;;;;;;;6307799;22;20030;-94
2022/07/07 04:01:33;;;;;;;0.10;0.10;;;;;;;;;;6234933;22;20439;-94
2022/07/07 04:03:59;;;;;;;0.10;0.10;;;;;;;;;;6259526;22;20010;-94
2022/07/07 04:06:25;;;;;;;0.10;0.10;;;;;;;;;;6259671;22;20015;-93
2022/07/07 04:08:51;;;;;;;0.10;0.10;;;;;;;;;;6259959;22;20017;-93
2022/07/07 04:11:17;;;;;;;0.10;0.10;;;;;;;;;;6260691;22;20007;-94
2022/07/07 04:13:43;;;;;;;0.10;0.10;;;;;;;;;;6261631;22;20011;-93
2022/07/07 04:16:09;;;;;;;0.10;0.10;;;;;;;;;;6262312;22;20332;-94
2022/07/07 04:18:35;;;;;;;0.10;0.10;;;;;;;;;;6261947;22;20351;-95
2022/07/07 04:21:02;;;;;;;0.10;0.10;;;;;;;;;;6261251;22;20014;-94
2022/07/07 04:23:28;;;;;;;0.10;0.10;;;;;;;;;;6261950;22;20313;-93
2022/07/07 04:25:54;;;;;;;0.10;0.10;;;;;;;;;;6261136;22;20011;-94
2022/07/07 04:28:20;;;;;;;0.10;0.10;;;;;;;;;;6261366;22;20014;-92
2022/07/07 04:30:46;;;;;;;0.20;0.20;;;;;;;;;;6261052;22;20010;-93
2022/07/07 04:33:24;;;;;;;0.10;0.10;;;;;;;;;;6262366;22;20010;-93
2022/07/07 04:35:50;;;;;;;0.10;0.10;;;;;;;;;;6262710;22;20010;-93
2022/07/07 04:38:16;;;;;;;0.10;0.10;;;;;;;;;;6286874;22;20075;-95
2022/07/07 04:40:43;;;;;;;0.10;0.10;;;;;;;;;;6262263;22;20018;-93
2022/07/07 04:43:09;;;;;;;0.10;0.10;;;;;;;;;;6260929;22;20072;-94
2022/07/07 04:45:35;;;;;;;0.10;0.10;;;;;;;;;;6261050;22;20018;-94
2022/07/07 04:48:03;;;;;;;0.20;0.20;;;;;;;;;;6260893;22;20021;-94
2022/07/07 04:50:29;;;;;;;0.45;0.20;;;;;;;;;;6261186;22;20007;-94
2022/07/07 04:52:55;;;;;;;0.10;0.10;;;;;;;;;;6261114;22;20011;-93
2022/07/07 04:55:21;;;;;;;0.10;0.10;;;;;;;;;;6260852;22;20015;-93
2022/07/07 04:57:47;;;;;;;0.10;0.10;;;;;;;;;;6261141;22;20022;-93
2022/07/07 05:00:13;;;;;;;0.10;0.10;;;;;;;;;;6260653;22;20022;-93
2022/07/07 05:02:40;;;;;;;0.10;0.10;;;;;;;;;;6261062;22;20090;-93
2022/07/07 05:05:07;;;;;;;0.10;0.10;;;;;;;;;;6261276;22;20062;-94
2022/07/07 05:07:33;;;;;;;0.10;0.10;;;;;;;;;;6260969;22;20017;-94
2022/07/07 05:09:59;;;;;;;0.10;0.10;;;;;;;;;;6260831;22;20511;-94
2022/07/07 05:12:25;;;;;;;0.10;0.10;;;;;;;;;;6261293;22;20448;-94
2022/07/07 05:14:51;;;;;;;0.10;0.10;;;;;;;;;;6261571;22;20042;-94
2022/07/07 05:17:17;;;;;;;0.10;0.10;;;;;;;;;;6261351;22;20007;-93
2022/07/07 05:19:43;;;;;;;0.10;0.10;;;;;;;;;;6261130;22;20022;-92
2022/07/07 05:22:09;;;;;;;0.10;0.10;;;;;;;;;;6261253;22;20015;-91
2022/07/07 05:24:35;;;;;;;0.10;0.10;;;;;;;;;;6260894;22;20017;-95
2022/07/07 05:27:01;;;;;;;0.10;0.10;;;;;;;;;;6260960;22;20023;-93
2022/07/07 05:29:28;;;;;;;0.10;0.10;;;;;;;;;;6260142;22;20050;-92
2022/07/07 05:31:54;;;;;;;0.10;0.10;;;;;;;;;;6286091;22;20496;-94
2022/07/07 05:34:23;;;;;;;0.10;0.10;;;;;;;;;;6261229;22;20093;-94
2022/07/07 05:37:06;;;;;;;;;;;;;;;;;;;;;
2022/07/07 05:39:37;;;;;;;0.10;0.10;;;;;;;;;;6276350;22;20015;-96
2022/07/07 05:42:10;;;;;;;0.10;0.10;;;;;;;;;;6260694;22;20538;-96
2022/07/07 05:44:47;;;;;;;0.10;0.10;;;;;;;;;;6336409;22;20101;-93
2022/07/07 05:47:13;;;;;;;0.10;0.10;;;;;;;;;;6316674;22;20021;-95
2022/07/07 05:49:39;;;;;;;0.10;0.10;;;;;;;;;;6316483;22;20040;-94
2022/07/07 05:52:08;;;;;;;0.10;0.10;;;;;;;;;;6316711;22;20038;-94
2022/07/07 05:54:41;;;;;;;0.10;0.10;;;;;;;;;;6291561;22;20208;-96
2022/07/07 05:57:07;;;;;;;0.10;0.10;;;;;;;;;;6291404;22;20063;-96
2022/07/07 05:59:43;;;;;;;0.20;0.20;;;;;;;;;;6291420;22;20057;-95
2022/07/07 06:02:12;;;;;;;0.10;0.10;;;;;;;;;;6317461;22;20015;-95
2022/07/07 06:04:38;;;;;;;0.10;0.10;;;;;;;;;;6291375;22;20097;-95
2022/07/07 06:07:04;;;;;;;0.10;0.10;;;;;;;;;;6291533;22;20016;-94
2022/07/07 06:09:30;;;;;;;0.10;0.10;;;;;;;;;;6293142;22;20025;-96
2022/07/07 06:11:56;;;;;;;0.10;0.10;;;;;;;;;;6290868;22;20085;-94
2022/07/07 06:14:22;;;;;;;0.60;0.20;;;;;;;;;;6291395;22;20025;-94
2022/07/07 06:16:48;;;;;;;0.10;0.10;;;;;;;;;;6291120;22;20002;-93
2022/07/07 06:19:16;;;;;;;0.10;0.10;;;;;;;;;;6316705;22;20025;-93
2022/07/07 06:21:42;;;;;;;0.10;0.10;;;;;;;;;;6291139;22;20021;-93
2022/07/07 06:24:11;;;;;;;0.10;0.10;;;;;;;;;;6291041;22;20064;-96
2022/07/07 06:26:42;;;;;;;1.65;1.55;;;;;;;;;;6291836;22;20018;-95
2022/07/07 06:29:08;;;;;;;0.10;0.10;;;;;;;;;;6291792;22;20017;-96
2022/07/07 06:31:34;;;;;;;0.10;0.10;;;;;;;;;;6290862;22;20048;-96
2022/07/07 06:34:03;;;;;;;0.20;0.20;;;;;;;;;;6290731;22;20006;-96
2022/07/07 06:36:32;;;;;;;0.10;0.10;;;;;;;;;;6291219;22;20013;-96
2022/07/07 06:39:07;;;;;;;0.10;0.10;;;;;;;;;;6291516;22;20010;-96
2022/07/07 06:41:43;;;;;;;0.10;0.10;;;;;;;;;;6321174;22;20019;-96
2022/07/07 06:44:12;;;;;;;0.10;0.10;;;;;;;;;;6287380;22;20046;-95
2022/07/07 06:46:48;;;;;;;0.20;0.20;;;;;;;;;;6291769;22;20413;-96
2022/07/07 06:49:19;;;;;;;0.10;0.10;;;;;;;;;;6292025;22;20010;-96
2022/07/07 06:51:48;;;;;;;0.10;0.10;;;;;;;;;;6291343;22;20013;-96
2022/07/07 06:54:20;;;;;;;0.10;0.10;;;;;;;;;;6291522;22;20016;-95
2022/07/07 06:56:46;;;;;;;0.10;0.10;;;;;;;;;;6291517;22;20014;-96
2022/07/07 06:59:15;;;;;;;0.10;0.10;;;;;;;;;;6290734;22;20022;-95
2022/07/07 07:01:44;;;;;;;0.10;0.10;;;;;;;;;;6291544;22;20010;-95
2022/07/07 07:04:18;;;;;;;0.10;0.10;;;;;;;;;;6292383;22;20339;-96
2022/07/07 07:06:53;;;;;;;0.10;0.10;;;;;;;;;;6294904;22;20063;-94
2022/07/07 07:22:05;;;;;;;0.20;0.20;;;;;;;;;;6223019;23;20020;-96
2022/07/07 07:24:43;;;;;;;;;;;;;;;;;;;;;
2022/07/07 07:27:18;;;;;;;0.10;0.10;;;;;;;;;;6201241;23;20047;-96
2022/07/07 07:34:03;;;;;;;0.10;0.10;;;;;;;;;;6149129;23;20034;-96
2022/07/07 07:36:48;;;;;;;0.10;0.10;;;;;;;;;;6198603;23;20027;-96
2022/07/07 07:39:15;;;;;;;0.10;0.10;;;;;;;;;;6261820;22;20022;-96
2022/07/07 07:41:44;;;;;;;0.10;0.10;;;;;;;;;;6292091;22;20102;-96
2022/07/07 07:47:20;;;;;;;0.10;0.10;;;;;;;;;;6321296;22;20402;-96
2022/07/07 07:50:01;;;;;;;0.13;0.13;;;;;;;;;;6291622;22;20066;-95
2022/07/07 07:52:48;;;;;;;0.10;0.10;;;;;;;;;;6291048;22;20470;-95
2022/07/07 07:55:35;;;;;;;0.10;0.10;;;;;;;;;;6344125;22;20010;-96
2022/07/07 07:58:11;;;;;;;0.10;0.10;;;;;;;;;;6294551;22;20014;-96
2022/07/07 08:00:47;;;;;;;0.10;0.10;;;;;;;;;;6294744;22;20015;-96
2022/07/07 08:03:13;;;;;;;0.10;0.10;;;;;;;;;;6292330;22;20016;-95
2022/07/07 08:06:00;;;;;;;0.10;0.10;;;;;;;;;;6296532;22;20014;-95
2022/07/07 08:08:46;;;;;;;0.30;0.30;;;;;;;;;;6310354;22;20103;-96
2022/07/07 08:16:19;;;;;;;0.10;0.10;;;;;;;;;;6311910;22;20020;-96
2022/07/07 08:18:48;;;;;;;0.10;0.10;;;;;;;;;;6230346;22;20011;-95
2022/07/07 08:21:18;;;;;;;0.10;0.10;;;;;;;;;;6259909;22;20018;-93
2022/07/07 08:23:50;;;;;;;0.10;0.10;;;;;;;;;;6313345;22;20014;-94
2022/07/07 08:29:38;;;;;;;0.10;0.10;;;;;;;;;;6242993;22;20019;-96
2022/07/07 08:32:10;;;;;;;0.10;0.10;;;;;;;;;;6312855;22;20007;-95
2022/07/07 08:34:47;;;;;;;0.10;0.10;;;;;;;;;;6285427;22;20018;-95
2022/07/07 08:37:13;;;;;;;0.10;0.10;;;;;;;;;;6263920;22;20011;-95
2022/07/07 08:40:08;;;;;;;0.10;0.10;;;;;;;;;;6261453;22;20015;-95
2022/07/07 08:42:36;;;;;;;0.10;0.10;;;;;;;;;;6166403;23;20055;-96
2022/07/07 08:45:41;;;;;;;0.10;0.10;;;;;;;;;;6165328;23;20068;-94
2022/07/07 08:48:18;;;;;;;0.10;0.10;;;;;;;;;;6214607;23;20027;-95
2022/07/07 08:57:20;;;;;;;0.20;0.20;;;;;;;;;;6215444;23;20461;-96
2022/07/07 09:03:18;;;;;;;;;;;;;;;;;;;;;
2022/07/07 09:09:31;;;;;;;0.10;0.10;;;;;;;;;;6167720;23;20023;-93
2022/07/07 09:12:06;;;;;;;0.10;0.10;;;;;;;;;;6187090;22;20027;-94
2022/07/07 09:15:08;;;;;;;0.10;0.10;;;;;;;;;;6233667;22;20019;-96
2022/07/07 09:17:51;;;;;;;0.10;0.10;;;;;;;;;;6172147;23;20024;-96
2022/07/07 09:24:11;;;;;;;0.10;0.10;;;;;;;;;;6022387;23;20024;-95
2022/07/07 09:30:04;;;;;;;0.10;0.10;;;;;;;;;;6223781;22;20019;-96
2022/07/07 09:32:46;;;;;;;0.10;0.10;;;;;;;;;;6242034;22;20018;-94
2022/07/07 09:38:13;;;;;;;;;;;;;;;;;;6295533;22;20066;-96
2022/07/07 09:38:28;;;;;;;0.10;0.10;;;;;;;;;;6345863;22;19910;-96
2022/07/07 09:44:23;;;;;;;;;;;;;;;;;;;;;
2022/07/07 09:53:41;;;;;;;;;;;;;;;;;;;;;
2022/07/07 09:56:53;;;;;;;;;;;;;;;;;;;;;
2022/07/07 09:59:57;;;;;;;0.10;0.10;;;;;;;;;;6331024;22;20030;-96
2022/07/07 10:03:39;;;;;;;;;;;;;;;;;;;;;
2022/07/07 10:08:55;;;;;;;0.10;0.10;;;;;;;;;;6236632;22;20568;-96
2022/07/07 10:14:58;;;;;;;;;;;;;;;;;;;;;
2022/07/07 10:18:18;;;;;;;0.10;0.10;;;;;;;;;;6345712;22;20011;-96
2022/07/07 10:27:30;;;;;;;;;;;;;;;;;;;;;
2022/07/07 10:36:05;;;;;;;;;;;;;;;;;;;;;
2022/07/07 10:58:05;;;;;;;;;;;;;;;;;;;;;
2022/07/07 11:01:35;;;;;;;0.10;0.10;;;;;;;;;;6248126;22;20043;-96
2022/07/07 11:04:46;;;;;;;0.10;0.10;;;;;;;;;;6259625;22;20015;-96
2022/07/07 11:18:36;;;;;;;0.20;0.20;;;;;;;;;;6309540;22;20023;-94
2022/07/07 11:21:49;;;;;;;;;;;;;;;;;;;;;
2022/07/07 11:24:57;;;;;;;0.20;0.20;;;;;;;;;;6164511;23;20036;-96
2022/07/07 11:27:53;;;;;;;;;;;;;;;;;;;;;
2022/07/07 11:30:56;;;;;;;0.10;0.10;;;;;;;;;;6159359;23;20068;-96
2022/07/07 11:33:25;;;;;;;0.20;0.20;;;;;;;;;;6173307;22;20011;-96
2022/07/07 11:36:17;;;;;;;0.10;0.10;;;;;;;;;;6261120;22;20011;-96
2022/07/07 11:38:55;;;;;;;0.10;0.10;;;;;;;;;;6287510;22;20408;-96
2022/07/07 11:41:43;;;;;;;0.10;0.10;;;;;;;;;;6240602;22;20162;-95
2022/07/07 11:48:07;;;;;;;0.10;0.10;;;;;;;;;;6022088;23;20023;-96
2022/07/07 11:53:37;;;;;;;0.10;0.10;;;;;;;;;;6081446;23;20018;-96
2022/07/07 11:56:10;;;;;;;0.10;0.10;;;;;;;;;;6080356;23;20097;-96
2022/07/07 11:58:51;;;;;;;0.10;0.10;;;;;;;;;;6109669;23;20051;-96
2022/07/07 12:01:26;;;;;;;0.10;0.10;;;;;;;;;;6195457;23;20012;-96
2022/07/07 12:07:04;;;;;;;0.10;0.10;;;;;;;;;;6184588;23;20016;-96
2022/07/07 12:09:30;;;;;;;0.10;0.10;;;;;;;;;;6102799;23;20029;-95
2022/07/07 12:12:31;;;;;;;0.17;0.17;;;;;;;;;;6182962;23;20013;-95
2022/07/07 12:14:58;;;;;;;0.10;0.10;;;;;;;;;;6181142;22;20054;-96
2022/07/07 12:17:36;;;;;;;0.10;0.10;;;;;;;;;;6229614;22;20011;-96
2022/07/07 12:20:05;;;;;;;0.10;0.10;;;;;;;;;;6254320;22;20023;-96
2022/07/07 12:22:43;;;;;;;0.20;0.20;;;;;;;;;;6259731;22;20440;-96
2022/07/07 12:25:11;;;;;;;0.10;0.10;;;;;;;;;;6260417;22;20014;-96
2022/07/07 12:27:58;;;;;;;0.10;0.10;;;;;;;;;;6260695;22;20064;-95
2022/07/07 12:30:31;;;;;;;0.10;0.10;;;;;;;;;;6286707;22;20058;-96
2022/07/07 12:33:00;;;;;;;0.10;0.10;;;;;;;;;;6262663;22;20007;-96
2022/07/07 12:35:37;;;;;;;;;;;;;;;;;;;;;
2022/07/07 12:38:13;;;;;;;0.10;0.10;;;;;;;;;;6314276;22;20015;-96
2022/07/07 12:40:41;;;;;;;0.70;0.30;;;;;;;;;;6262816;22;20022;-95
2022/07/07 12:43:08;;;;;;;0.17;0.17;;;;;;;;;;6262587;22;20340;-95
2022/07/07 12:45:38;;;;;;;0.10;0.10;;;;;;;;;;6261895;22;20090;-95
2022/07/07 12:48:17;;;;;;;0.10;0.10;;;;;;;;;;6262249;22;20047;-96
2022/07/07 12:50:46;;;;;;;0.20;0.20;;;;;;;;;;6262504;22;20007;-95
2022/07/07 12:53:12;;;;;;;0.10;0.10;;;;;;;;;;6263551;22;20396;-95
2022/07/07 12:55:46;;;;;;;0.10;0.10;;;;;;;;;;6260753;22;20013;-96
2022/07/07 12:58:30;;;;;;;1.02;0.50;;;;;;;;;;6289097;22;20015;-96
2022/07/07 13:01:06;;;;;;;0.10;0.10;;;;;;;;;;6288977;22;20059;-96
2022/07/07 13:03:35;;;;;;;0.10;0.10;;;;;;;;;;6265925;22;20022;-96
2022/07/07 13:06:04;;;;;;;0.10;0.10;;;;;;;;;;6264899;22;20011;-96
2022/07/07 13:08:51;;;;;;;0.10;0.10;;;;;;;;;;6262520;22;20137;-96
2022/07/07 13:11:17;;;;;;;0.20;0.20;;;;;;;;;;6292533;22;20444;-93
2022/07/07 13:13:49;;;;;;;0.10;0.10;;;;;;;;;;6290380;22;20065;-96
2022/07/07 13:16:27;;;;;;;0.10;0.10;;;;;;;;;;6274078;22;20011;-96
2022/07/07 13:18:53;;;;;;;0.10;0.10;;;;;;;;;;6268150;22;20026;-94
2022/07/07 13:21:37;;;;;;;0.20;0.20;;;;;;;;;;6266950;22;20014;-96
2022/07/07 13:24:03;;;;;;;0.10;0.10;;;;;;;;;;6268290;22;20327;-95
2022/07/07 13:26:32;;;;;;;0.10;0.10;;;;;;;;;;6267173;22;20014;-96
2022/07/07 13:28:58;;;;;;;0.10;0.10;;;;;;;;;;6265296;22;20084;-96
2022/07/07 13:31:24;;;;;;;0.60;0.20;;;;;;;;;;6265313;22;20014;-96
2022/07/07 13:36:51;;;;;;;0.10;0.10;;;;;;;;;;6249396;22;20101;-96
2022/07/07 13:39:17;;;;;;;0.20;0.20;;;;;;;;;;6261961;22;20015;-96
2022/07/07 13:41:43;;;;;;;0.10;0.10;;;;;;;;;;6260744;22;20015;-96
2022/07/07 13:44:09;;;;;;;0.10;0.10;;;;;;;;;;6261285;22;20022;-96
2022/07/07 13:46:36;;;;;;;0.10;0.10;;;;;;;;;;6261321;22;20014;-96
2022/07/07 13:49:26;;;;;;;0.10;0.10;;;;;;;;;;6313993;22;20015;-96
2022/07/07 13:52:07;;;;;;;0.10;0.10;;;;;;;;;;6291909;22;20014;-95
2022/07/07 13:55:01;;;;;;;0.10;0.10;;;;;;;;;;6290897;22;20046;-96
2022/07/07 13:57:42;;;;;;;;;;;;;;;;;;;;;
2022/07/07 14:00:11;;;;;;;0.10;0.10;;;;;;;;;;6313972;22;20011;-96
2022/07/07 14:02:38;;;;;;;0.10;0.10;;;;;;;;;;6261045;22;20093;-95
2022/07/07 14:07:53;;;;;;;0.10;0.10;;;;;;;;;;6169507;23;20021;-96
2022/07/07 14:10:29;;;;;;;0.10;0.10;;;;;;;;;;6250155;22;20007;-96
2022/07/07 14:13:07;;;;;;;0.10;0.10;;;;;;;;;;6263821;22;20014;-96
2022/07/07 14:15:36;;;;;;;0.32;0.32;;;;;;;;;;6263772;22;20370;-96
2022/07/07 14:18:59;;;;;;;;;;;;;;;;;;;;;
2022/07/07 14:21:15;;;;;;;0.10;0.10;;;;;;;;;;6182502;23;20020;-95
2022/07/07 14:24:02;;;;;;;0.10;0.10;;;;;;;;;;6140375;23;20362;-95
2022/07/07 14:26:31;;;;;;;0.10;0.10;;;;;;;;;;6281357;22;20015;-96
2022/07/07 14:29:07;;;;;;;;;;;;;;;;;;;;;
2022/07/07 14:31:34;;;;;;;0.15;0.15;;;;;;;;;;6282086;22;20374;-96
2022/07/07 14:34:03;;;;;;;0.10;0.10;;;;;;;;;;6260228;22;20014;-96
2022/07/07 14:36:29;;;;;;;0.10;0.10;;;;;;;;;;6260128;22;20011;-96
2022/07/07 14:38:55;;;;;;;0.10;0.10;;;;;;;;;;6263148;22;20130;-96
2022/07/07 14:41:26;;;;;;;0.10;0.10;;;;;;;;;;6262690;22;20021;-96
2022/07/07 14:43:58;;;;;;;0.10;0.10;;;;;;;;;;6262260;22;20011;-96
2022/07/07 14:46:24;;;;;;;0.20;0.20;;;;;;;;;;6264966;22;20011;-96
2022/07/07 14:51:55;;;;;;;0.10;0.10;;;;;;;;;;6277561;22;20018;-96
2022/07/07 14:54:21;;;;;;;0.10;0.10;;;;;;;;;;6260801;22;20014;-96
2022/07/07 14:56:47;;;;;;;0.10;0.10;;;;;;;;;;6260750;22;20034;-96
2022/07/07 14:59:13;;;;;;;0.10;0.10;;;;;;;;;;6261830;22;20011;-95
2022/07/07 15:01:41;;;;;;;0.30;0.30;;;;;;;;;;6265142;22;20079;-96
2022/07/07 15:04:07;;;;;;;0.10;0.10;;;;;;;;;;6264636;22;20019;-95
2022/07/07 15:06:36;;;;;;;0.10;0.10;;;;;;;;;;6263374;22;20038;-96
2022/07/07 15:09:02;;;;;;;0.10;0.10;;;;;;;;;;6262071;22;20459;-96
2022/07/07 15:11:42;;;;;;;0.30;0.30;;;;;;;;;;6257895;22;20047;-96
2022/07/07 15:14:11;;;;;;;0.10;0.10;;;;;;;;;;6257025;22;20094;-96
2022/07/07 15:17:00;;;;;;;0.10;0.10;;;;;;;;;;6258586;22;20012;-96
2022/07/07 15:20:04;;;;;;;0.10;0.10;;;;;;;;;;6269925;22;20011;-96
2022/07/07 15:22:52;;;;;;;0.20;0.20;;;;;;;;;;6311557;22;20061;-95
2022/07/07 15:25:20;;;;;;;0.10;0.10;;;;;;;;;;6264193;22;20122;-95
2022/07/07 15:27:54;;;;;;;0.10;0.10;;;;;;;;;;6258147;22;20011;-96
2022/07/07 15:30:36;;;;;;;0.40;0.35;;;;;;;;;;6258936;22;20011;-96
2022/07/07 15:33:05;;;;;;;0.10;0.10;;;;;;;;;;6288269;22;20011;-96
2022/07/07 15:35:32;;;;;;;0.10;0.10;;;;;;;;;;6255312;22;20054;-96
2022/07/07 15:37:58;;;;;;;0.10;0.10;;;;;;;;;;6254609;22;20011;-95
2022/07/07 15:40:24;;;;;;;0.25;0.20;;;;;;;;;;6255539;22;20007;-95
2022/07/07 15:42:50;;;;;;;0.75;0.75;;;;;;;;;;6254573;22;20011;-94
2022/07/07 15:45:16;;;;;;;0.10;0.10;;;;;;;;;;6254825;22;20019;-95
2022/07/07 15:47:45;;;;;;;0.10;0.10;;;;;;;;;;6254647;22;20011;-95
2022/07/07 15:50:11;;;;;;;0.10;0.10;;;;;;;;;;6254878;22;20011;-96
2022/07/07 15:52:41;;;;;;;0.10;0.10;;;;;;;;;;6254123;22;20433;-96
2022/07/07 15:55:07;;;;;;;0.10;0.10;;;;;;;;;;6256709;22;20416;-96
2022/07/07 15:57:36;;;;;;;0.15;0.15;;;;;;;;;;6258778;22;20007;-96
2022/07/07 16:04:33;;;;;;;0.20;0.20;;;;;;;;;;6260394;22;20028;-96
2022/07/07 16:06:11;;;;;;;0.10;0.10;;;;;;;;;;6231354;22;20043;-96
2022/07/07 16:08:58;;;;;;;0.10;0.10;;;;;;;;;;6228504;22;20012;-95
2022/07/07 16:11:40;;;;;;;0.10;0.10;;;;;;;;;;6279986;22;20018;-96
2022/07/07 16:17:23;;;;;;;0.10;0.10;;;;;;;;;;6165492;23;20053;-95
2022/07/07 16:19:52;;;;;;;0.10;0.10;;;;;;;;;;6143207;23;20016;-96
2022/07/07 16:25:24;;;;;;;0.10;0.10;;;;;;;;;;6170459;23;20024;-96
2022/07/07 16:27:53;;;;;;;0.15;0.15;;;;;;;;;;6143192;23;20096;-96
2022/07/07 16:33:42;;;;;;;0.20;0.20;;;;;;;;;;6294356;22;20023;-95
2022/07/07 16:36:16;;;;;;;0.17;0.17;;;;;;;;;;6157050;23;20021;-96
2022/07/07 16:39:18;;;;;;;;;;;;;;;;;;;;;
2022/07/07 16:42:47;;;;;;;0.10;0.10;;;;;;;;;;6271302;22;20084;-96
2022/07/07 16:44:56;;;;;;;0.10;0.10;;;;;;;;;;6281226;22;20110;-96
2022/07/07 16:48:05;;;;;;;0.10;0.10;;;;;;;;;;6270268;22;20014;-96
2022/07/07 16:51:04;;;;;;;0.10;0.10;;;;;;;;;;6281160;22;20015;-96
2022/07/07 17:00:32;;;;;;;0.10;0.10;;;;;;;;;;6202184;23;20039;-96
2022/07/07 17:03:37;;;;;;;0.10;0.10;;;;;;;;;;6186907;23;20000;-96
2022/07/07 17:06:20;;;;;;;0.10;0.10;;;;;;;;;;6054579;23;20018;-96
2022/07/07 17:09:09;;;;;;;0.10;0.10;;;;;;;;;;6033614;23;20019;-96
2022/07/07 17:12:08;;;;;;;0.20;0.20;;;;;;;;;;6166628;22;20015;-96
2022/07/07 17:15:18;;;;;;;0.10;0.10;;;;;;;;;;6261663;22;20019;-96
2022/07/07 17:20:56;;;;;;;;;;;;;;;;;;;;;
2022/07/07 17:27:39;;;;;;;0.20;0.20;;;;;;;;;;6120629;23;20033;-96
2022/07/07 17:30:20;;;;;;;0.10;0.10;;;;;;;;;;6067405;23;20559;-96
2022/07/07 17:33:20;;;;;;;0.10;0.10;;;;;;;;;;6075260;23;20065;-96
2022/07/07 18:07:03;;;;;;;;;;;;;;;;;;;;;
2022/07/07 18:19:06;;;;;;;;;;;;;;;;;;;;;
2022/07/07 20:19:53;;;;;;;;;;;;;;;;;;;;;
2022/07/07 21:04:30;;;;;;;0.30;0.30;;;;;;;;;;6308603;22;20103;-96
2022/07/07 21:07:11;;;;;;;;;;;;;;;;;;;;;
2022/07/07 21:09:49;;;;;;;0.10;0.10;;;;;;;;;;6260202;22;20046;-95
2022/07/07 21:12:28;;;;;;;0.10;0.10;;;;;;;;;;6224801;22;20065;-96
2022/07/07 21:15:45;;;;;;;;;;;;;;;;;;;;;
2022/07/07 21:19:03;;;;;;;;;;;;;;;;;;;;;
2022/07/07 21:21:56;;;;;;;0.10;0.10;;;;;;;;;;6250913;22;20020;-96
2022/07/07 21:31:12;;;;;;;0.10;0.10;;;;;;;;;;6237329;22;20364;-96
2022/07/07 21:33:40;;;;;;;0.10;0.10;;;;;;;;;;6246554;22;20051;-95
2022/07/07 21:39:13;;;;;;;0.25;0.25;;;;;;;;;;6220323;22;20069;-96
2022/07/07 21:41:49;;;;;;;;;;;;;;;;;;;;;
2022/07/07 21:44:15;;;;;;;0.10;0.10;;;;;;;;;;6227502;22;20099;-96
2022/07/07 21:46:59;;;;;;;0.10;0.10;;;;;;;;;;6200491;22;20007;-96
2022/07/07 21:52:29;;;;;;;0.10;0.10;;;;;;;;;;6138098;23;20041;-96
2022/07/07 22:01:32;;;;;;;;;;;;;;;;;;;;;
2022/07/07 22:07:10;;;;;;;0.10;0.10;;;;;;;;;;6196764;23;20020;-96
2022/07/07 22:09:42;;;;;;;0.10;0.10;;;;;;;;;;6169959;23;20012;-96
2022/07/07 22:12:11;;;;;;;0.10;0.10;;;;;;;;;;6168337;23;20023;-96
2022/07/07 22:14:58;;;;;;;0.10;0.10;;;;;;;;;;6168944;23;20066;-96
2022/07/07 22:17:47;;;;;;;0.10;0.10;;;;;;;;;;6192922;23;20012;-96
2022/07/07 22:20:50;;;;;;;0.10;0.10;;;;;;;;;;6193479;23;20507;-96
2022/07/07 22:23:54;;;;;;;0.10;0.10;;;;;;;;;;6188985;23;20063;-96
2022/07/07 22:26:42;;;;;;;0.10;0.10;;;;;;;;;;6196832;23;20091;-96
2022/07/07 22:29:25;;;;;;;0.10;0.10;;;;;;;;;;6208867;23;20012;-96
2022/07/07 22:31:54;;;;;;;0.10;0.10;;;;;;;;;;6170429;23;20108;-96
2022/07/07 22:35:02;;;;;;;;;;;;;;;;;;;;;
2022/07/07 22:37:28;;;;;;;0.10;0.10;;;;;;;;;;6246499;22;20023;-95
2022/07/07 22:40:04;;;;;;;;;;;;;;;;;;;;;
2022/07/07 22:42:36;;;;;;;0.10;0.10;;;;;;;;;;6254244;22;20080;-96
2022/07/07 22:45:03;;;;;;;0.10;0.10;;;;;;;;;;6225860;22;20425;-95
2022/07/07 22:47:58;;;;;;;;;;;;;;;;;;;;;
2022/07/07 23:16:24;;;;;;;;;;;;;;;;;;;;;
2022/07/07 23:23:02;;;;;;;0.10;0.10;;;;;;;;;;6301150;22;20035;-96
2022/07/07 23:25:56;;;;;;;0.20;0.20;;;;;;;;;;6252490;22;20098;-96
2022/07/07 23:28:41;;;;;;;0.10;0.10;;;;;;;;;;6249718;22;20034;-96
2022/07/07 23:38:41;;;;;;;0.10;0.10;;;;;;;;;;6208655;23;20469;-96
